sensor_id;sensor_type;location;lat;lon;timestamp;P1;durP1;ratioP1;P2;durP2;ratioP2
34317;SDS011;20582;52.196;20.952;2023-07-31T00:00:15;5.13;;;2.60;;
34317;SDS011;20582;52.196;20.952;2023-07-31T00:02:41;3.40;;;2.20;;
34317;SDS011;20582;52.196;20.952;2023-07-31T00:05:08;3.85;;;2.22;;
34317;SDS011;20582;52.196;20.952;2023-07-31T00:07:34;6.40;;;2.45;;
34317;SDS011;20582;52.196;20.952;2023-07-31T00:10:01;3.88;;;2.60;;
34317;SDS011;20582;52.196;20.952;2023-07-31T00:12:27;5.78;;;2.55;;
34317;SDS011;20582;52.196;20.952;2023-07-31T00:14:53;6.38;;;2.60;;
34317;SDS011;20582;52.196;20.952;2023-07-31T00:17:19;5.55;;;2.78;;
34317;SDS011;20582;52.196;20.952;2023-07-31T00:19:45;6.07;;;2.55;;
34317;SDS011;20582;52.196;20.952;2023-07-31T00:22:11;5.15;;;2.40;;
34317;SDS011;20582;52.196;20.952;2023-07-31T00:24:37;4.28;;;2.50;;
34317;SDS011;20582;52.196;20.952;2023-07-31T00:27:03;5.60;;;2.72;;
34317;SDS011;20582;52.196;20.952;2023-07-31T00:29:29;4.13;;;2.30;;
34317;SDS011;20582;52.196;20.952;2023-07-31T00:31:55;6.03;;;2.65;;
34317;SDS011;20582;52.196;20.952;2023-07-31T00:34:21;4.53;;;2.33;;
34317;SDS011;20582;52.196;20.952;2023-07-31T00:36:47;5.70;;;2.70;;
34317;SDS011;20582;52.196;20.952;2023-07-31T00:39:13;5.80;;;2.78;;
34317;SDS011;20582;52.196;20.952;2023-07-31T00:41:39;5.18;;;2.60;;
34317;SDS011;20582;52.196;20.952;2023-07-31T00:44:05;4.78;;;2.70;;
34317;SDS011;20582;52.196;20.952;2023-07-31T00:46:31;7.38;;;3.17;;
34317;SDS011;20582;52.196;20.952;2023-07-31T00:48:57;4.60;;;2.63;;
34317;SDS011;20582;52.196;20.952;2023-07-31T00:51:23;5.95;;;2.75;;
34317;SDS011;20582;52.196;20.952;2023-07-31T00:53:49;6.97;;;2.92;;
34317;SDS011;20582;52.196;20.952;2023-07-31T00:56:15;5.40;;;2.80;;
34317;SDS011;20582;52.196;20.952;2023-07-31T00:58:41;4.80;;;2.70;;
34317;SDS011;20582;52.196;20.952;2023-07-31T01:01:07;7.25;;;3.03;;
34317;SDS011;20582;52.196;20.952;2023-07-31T01:03:33;5.15;;;2.70;;
34317;SDS011;20582;52.196;20.952;2023-07-31T01:06:22;8.20;;;3.22;;
34317;SDS011;20582;52.196;20.952;2023-07-31T01:08:58;6.40;;;3.10;;
34317;SDS011;20582;52.196;20.952;2023-07-31T01:11:26;6.68;;;3.00;;
34317;SDS011;20582;52.196;20.952;2023-07-31T01:13:53;7.68;;;3.03;;
34317;SDS011;20582;52.196;20.952;2023-07-31T01:16:19;5.47;;;2.92;;
34317;SDS011;20582;52.196;20.952;2023-07-31T01:18:45;6.65;;;3.08;;
34317;SDS011;20582;52.196;20.952;2023-07-31T01:21:18;4.80;;;2.80;;
34317;SDS011;20582;52.196;20.952;2023-07-31T01:23:51;6.25;;;3.03;;
34317;SDS011;20582;52.196;20.952;2023-07-31T01:26:24;7.05;;;3.25;;
34317;SDS011;20582;52.196;20.952;2023-07-31T01:29:01;7.43;;;3.38;;
34317;SDS011;20582;52.196;20.952;2023-07-31T01:31:29;6.90;;;3.20;;
34317;SDS011;20582;52.196;20.952;2023-07-31T01:33:56;6.05;;;2.88;;
34317;SDS011;20582;52.196;20.952;2023-07-31T01:36:23;8.43;;;3.28;;
34317;SDS011;20582;52.196;20.952;2023-07-31T01:38:49;8.07;;;3.38;;
34317;SDS011;20582;52.196;20.952;2023-07-31T01:41:18;7.40;;;3.28;;
34317;SDS011;20582;52.196;20.952;2023-07-31T01:43:45;6.80;;;3.60;;
34317;SDS011;20582;52.196;20.952;2023-07-31T01:46:11;9.15;;;3.80;;
34317;SDS011;20582;52.196;20.952;2023-07-31T01:48:37;8.02;;;3.50;;
34317;SDS011;20582;52.196;20.952;2023-07-31T01:51:03;7.50;;;3.47;;
34317;SDS011;20582;52.196;20.952;2023-07-31T01:53:32;8.38;;;3.70;;
34317;SDS011;20582;52.196;20.952;2023-07-31T01:55:58;9.40;;;3.88;;
34317;SDS011;20582;52.196;20.952;2023-07-31T01:58:24;6.63;;;3.47;;
34317;SDS011;20582;52.196;20.952;2023-07-31T02:00:50;5.85;;;3.67;;
34317;SDS011;20582;52.196;20.952;2023-07-31T02:03:16;7.53;;;4.00;;
34317;SDS011;20582;52.196;20.952;2023-07-31T02:05:45;6.95;;;3.63;;
34317;SDS011;20582;52.196;20.952;2023-07-31T02:08:11;7.97;;;3.67;;
34317;SDS011;20582;52.196;20.952;2023-07-31T02:10:37;7.18;;;3.90;;
34317;SDS011;20582;52.196;20.952;2023-07-31T02:13:03;7.30;;;4.00;;
34317;SDS011;20582;52.196;20.952;2023-07-31T02:15:29;6.70;;;4.28;;
34317;SDS011;20582;52.196;20.952;2023-07-31T02:17:56;7.15;;;3.97;;
34317;SDS011;20582;52.196;20.952;2023-07-31T02:20:21;10.45;;;4.88;;
34317;SDS011;20582;52.196;20.952;2023-07-31T02:22:47;9.05;;;4.32;;
34317;SDS011;20582;52.196;20.952;2023-07-31T02:25:13;7.35;;;4.10;;
34317;SDS011;20582;52.196;20.952;2023-07-31T02:27:39;12.50;;;4.30;;
34317;SDS011;20582;52.196;20.952;2023-07-31T02:30:06;7.28;;;4.10;;
34317;SDS011;20582;52.196;20.952;2023-07-31T02:32:32;7.72;;;4.10;;
34317;SDS011;20582;52.196;20.952;2023-07-31T02:34:58;8.00;;;4.50;;
34317;SDS011;20582;52.196;20.952;2023-07-31T02:37:24;8.77;;;4.22;;
34317;SDS011;20582;52.196;20.952;2023-07-31T02:39:50;9.00;;;3.78;;
34317;SDS011;20582;52.196;20.952;2023-07-31T02:42:16;8.02;;;4.45;;
34317;SDS011;20582;52.196;20.952;2023-07-31T02:44:42;8.23;;;4.40;;
34317;SDS011;20582;52.196;20.952;2023-07-31T02:47:08;7.75;;;4.22;;
34317;SDS011;20582;52.196;20.952;2023-07-31T02:49:34;9.00;;;4.18;;
34317;SDS011;20582;52.196;20.952;2023-07-31T02:52:00;8.90;;;4.20;;
34317;SDS011;20582;52.196;20.952;2023-07-31T02:54:26;8.55;;;4.20;;
34317;SDS011;20582;52.196;20.952;2023-07-31T02:56:52;8.98;;;4.30;;
34317;SDS011;20582;52.196;20.952;2023-07-31T02:59:18;9.02;;;4.55;;
34317;SDS011;20582;52.196;20.952;2023-07-31T03:01:44;10.60;;;4.90;;
34317;SDS011;20582;52.196;20.952;2023-07-31T03:04:10;7.63;;;4.13;;
34317;SDS011;20582;52.196;20.952;2023-07-31T03:06:36;10.57;;;4.43;;
34317;SDS011;20582;52.196;20.952;2023-07-31T03:09:02;7.78;;;4.32;;
34317;SDS011;20582;52.196;20.952;2023-07-31T03:11:28;8.15;;;4.55;;
34317;SDS011;20582;52.196;20.952;2023-07-31T03:13:54;6.82;;;3.97;;
34317;SDS011;20582;52.196;20.952;2023-07-31T03:16:20;7.63;;;4.20;;
34317;SDS011;20582;52.196;20.952;2023-07-31T03:18:46;7.10;;;3.97;;
34317;SDS011;20582;52.196;20.952;2023-07-31T03:21:12;8.18;;;4.05;;
34317;SDS011;20582;52.196;20.952;2023-07-31T03:23:38;8.32;;;4.35;;
34317;SDS011;20582;52.196;20.952;2023-07-31T03:26:05;8.25;;;4.55;;
34317;SDS011;20582;52.196;20.952;2023-07-31T03:28:31;10.23;;;4.30;;
34317;SDS011;20582;52.196;20.952;2023-07-31T03:30:57;8.48;;;4.15;;
34317;SDS011;20582;52.196;20.952;2023-07-31T03:33:23;11.88;;;4.35;;
34317;SDS011;20582;52.196;20.952;2023-07-31T03:35:49;7.63;;;4.25;;
34317;SDS011;20582;52.196;20.952;2023-07-31T03:38:15;7.78;;;4.32;;
34317;SDS011;20582;52.196;20.952;2023-07-31T03:40:41;9.40;;;4.20;;
34317;SDS011;20582;52.196;20.952;2023-07-31T03:43:07;10.40;;;3.95;;
34317;SDS011;20582;52.196;20.952;2023-07-31T03:45:33;8.45;;;4.30;;
34317;SDS011;20582;52.196;20.952;2023-07-31T03:47:59;9.38;;;4.30;;
34317;SDS011;20582;52.196;20.952;2023-07-31T03:50:25;9.23;;;4.15;;
34317;SDS011;20582;52.196;20.952;2023-07-31T03:52:51;8.95;;;4.78;;
34317;SDS011;20582;52.196;20.952;2023-07-31T03:55:17;8.95;;;4.25;;
34317;SDS011;20582;52.196;20.952;2023-07-31T03:57:43;7.32;;;4.15;;
34317;SDS011;20582;52.196;20.952;2023-07-31T04:00:09;8.85;;;4.18;;
34317;SDS011;20582;52.196;20.952;2023-07-31T04:02:36;10.32;;;4.65;;
34317;SDS011;20582;52.196;20.952;2023-07-31T04:05:02;9.80;;;4.28;;
34317;SDS011;20582;52.196;20.952;2023-07-31T04:07:27;9.85;;;3.90;;
34317;SDS011;20582;52.196;20.952;2023-07-31T04:09:53;7.18;;;3.80;;
34317;SDS011;20582;52.196;20.952;2023-07-31T04:12:19;8.23;;;4.18;;
34317;SDS011;20582;52.196;20.952;2023-07-31T04:14:45;10.20;;;4.00;;
34317;SDS011;20582;52.196;20.952;2023-07-31T04:17:11;7.13;;;4.00;;
34317;SDS011;20582;52.196;20.952;2023-07-31T04:19:37;9.23;;;4.35;;
34317;SDS011;20582;52.196;20.952;2023-07-31T04:22:03;8.65;;;4.10;;
34317;SDS011;20582;52.196;20.952;2023-07-31T04:24:29;8.93;;;4.22;;
34317;SDS011;20582;52.196;20.952;2023-07-31T04:26:55;7.93;;;4.20;;
34317;SDS011;20582;52.196;20.952;2023-07-31T04:29:21;9.18;;;3.90;;
34317;SDS011;20582;52.196;20.952;2023-07-31T04:31:48;11.35;;;3.90;;
34317;SDS011;20582;52.196;20.952;2023-07-31T04:34:14;8.80;;;4.65;;
34317;SDS011;20582;52.196;20.952;2023-07-31T04:36:40;8.50;;;4.32;;
34317;SDS011;20582;52.196;20.952;2023-07-31T04:39:06;8.45;;;4.30;;
34317;SDS011;20582;52.196;20.952;2023-07-31T04:41:32;9.50;;;4.18;;
34317;SDS011;20582;52.196;20.952;2023-07-31T04:43:58;8.82;;;4.18;;
34317;SDS011;20582;52.196;20.952;2023-07-31T04:46:24;9.63;;;3.92;;
34317;SDS011;20582;52.196;20.952;2023-07-31T04:48:50;8.45;;;3.83;;
34317;SDS011;20582;52.196;20.952;2023-07-31T04:51:17;11.43;;;4.00;;
34317;SDS011;20582;52.196;20.952;2023-07-31T04:53:43;7.70;;;4.15;;
34317;SDS011;20582;52.196;20.952;2023-07-31T04:56:09;7.13;;;4.15;;
34317;SDS011;20582;52.196;20.952;2023-07-31T04:58:34;11.32;;;3.90;;
34317;SDS011;20582;52.196;20.952;2023-07-31T05:01:00;12.95;;;4.03;;
34317;SDS011;20582;52.196;20.952;2023-07-31T05:03:26;9.55;;;4.25;;
34317;SDS011;20582;52.196;20.952;2023-07-31T05:05:52;7.65;;;3.80;;
34317;SDS011;20582;52.196;20.952;2023-07-31T05:08:18;7.22;;;3.90;;
34317;SDS011;20582;52.196;20.952;2023-07-31T05:10:44;11.32;;;4.03;;
34317;SDS011;20582;52.196;20.952;2023-07-31T05:13:10;10.60;;;4.15;;
34317;SDS011;20582;52.196;20.952;2023-07-31T05:15:36;9.93;;;3.70;;
34317;SDS011;20582;52.196;20.952;2023-07-31T05:18:02;7.15;;;4.00;;
34317;SDS011;20582;52.196;20.952;2023-07-31T05:20:28;7.32;;;3.80;;
34317;SDS011;20582;52.196;20.952;2023-07-31T05:22:54;7.15;;;3.60;;
34317;SDS011;20582;52.196;20.952;2023-07-31T05:25:20;11.88;;;4.15;;
34317;SDS011;20582;52.196;20.952;2023-07-31T05:27:46;9.25;;;4.10;;
34317;SDS011;20582;52.196;20.952;2023-07-31T05:30:12;13.07;;;3.97;;
34317;SDS011;20582;52.196;20.952;2023-07-31T05:32:38;10.65;;;4.05;;
34317;SDS011;20582;52.196;20.952;2023-07-31T05:35:04;7.55;;;4.00;;
34317;SDS011;20582;52.196;20.952;2023-07-31T05:37:30;7.90;;;3.92;;
34317;SDS011;20582;52.196;20.952;2023-07-31T05:39:56;8.30;;;3.85;;
34317;SDS011;20582;52.196;20.952;2023-07-31T05:42:22;9.45;;;3.38;;
34317;SDS011;20582;52.196;20.952;2023-07-31T05:44:48;11.38;;;3.80;;
34317;SDS011;20582;52.196;20.952;2023-07-31T05:47:14;7.85;;;3.85;;
34317;SDS011;20582;52.196;20.952;2023-07-31T05:49:40;10.48;;;3.85;;
34317;SDS011;20582;52.196;20.952;2023-07-31T05:52:06;9.35;;;3.83;;
34317;SDS011;20582;52.196;20.952;2023-07-31T05:54:32;8.23;;;3.83;;
34317;SDS011;20582;52.196;20.952;2023-07-31T05:56:58;8.05;;;3.92;;
34317;SDS011;20582;52.196;20.952;2023-07-31T05:59:24;8.98;;;4.07;;
34317;SDS011;20582;52.196;20.952;2023-07-31T06:01:51;7.85;;;3.58;;
34317;SDS011;20582;52.196;20.952;2023-07-31T06:04:17;9.60;;;3.65;;
34317;SDS011;20582;52.196;20.952;2023-07-31T06:06:42;9.43;;;3.72;;
34317;SDS011;20582;52.196;20.952;2023-07-31T06:09:08;9.30;;;3.97;;
34317;SDS011;20582;52.196;20.952;2023-07-31T06:11:34;8.38;;;4.05;;
34317;SDS011;20582;52.196;20.952;2023-07-31T06:14:00;6.15;;;3.45;;
34317;SDS011;20582;52.196;20.952;2023-07-31T06:16:26;6.88;;;3.83;;
34317;SDS011;20582;52.196;20.952;2023-07-31T06:18:52;7.32;;;4.05;;
34317;SDS011;20582;52.196;20.952;2023-07-31T06:21:18;7.50;;;3.88;;
34317;SDS011;20582;52.196;20.952;2023-07-31T06:23:44;11.00;;;4.43;;
34317;SDS011;20582;52.196;20.952;2023-07-31T06:26:10;11.00;;;4.32;;
34317;SDS011;20582;52.196;20.952;2023-07-31T06:28:36;8.05;;;4.30;;
34317;SDS011;20582;52.196;20.952;2023-07-31T06:31:02;6.55;;;4.00;;
34317;SDS011;20582;52.196;20.952;2023-07-31T06:33:28;9.60;;;4.57;;
34317;SDS011;20582;52.196;20.952;2023-07-31T06:35:54;9.43;;;4.15;;
34317;SDS011;20582;52.196;20.952;2023-07-31T06:38:26;7.72;;;4.30;;
34317;SDS011;20582;52.196;20.952;2023-07-31T06:40:52;10.07;;;4.10;;
34317;SDS011;20582;52.196;20.952;2023-07-31T06:43:18;14.07;;;4.53;;
34317;SDS011;20582;52.196;20.952;2023-07-31T06:45:44;8.25;;;4.00;;
34317;SDS011;20582;52.196;20.952;2023-07-31T06:48:11;11.38;;;4.90;;
34317;SDS011;20582;52.196;20.952;2023-07-31T06:50:37;8.52;;;4.47;;
34317;SDS011;20582;52.196;20.952;2023-07-31T06:53:03;14.68;;;5.05;;
34317;SDS011;20582;52.196;20.952;2023-07-31T06:55:29;9.70;;;4.85;;
34317;SDS011;20582;52.196;20.952;2023-07-31T06:57:56;8.60;;;4.22;;
34317;SDS011;20582;52.196;20.952;2023-07-31T07:00:22;8.65;;;4.35;;
34317;SDS011;20582;52.196;20.952;2023-07-31T07:02:49;8.80;;;4.25;;
34317;SDS011;20582;52.196;20.952;2023-07-31T07:05:15;8.77;;;4.18;;
34317;SDS011;20582;52.196;20.952;2023-07-31T07:07:42;8.98;;;4.43;;
34317;SDS011;20582;52.196;20.952;2023-07-31T07:10:08;8.20;;;3.85;;
34317;SDS011;20582;52.196;20.952;2023-07-31T07:12:34;8.30;;;4.22;;
34317;SDS011;20582;52.196;20.952;2023-07-31T07:15:00;8.10;;;4.28;;
34317;SDS011;20582;52.196;20.952;2023-07-31T07:17:27;9.32;;;4.35;;
34317;SDS011;20582;52.196;20.952;2023-07-31T07:19:53;11.68;;;4.05;;
34317;SDS011;20582;52.196;20.952;2023-07-31T07:22:20;10.00;;;3.85;;
34317;SDS011;20582;52.196;20.952;2023-07-31T07:24:46;10.52;;;4.03;;
34317;SDS011;20582;52.196;20.952;2023-07-31T07:27:12;8.95;;;4.03;;
34317;SDS011;20582;52.196;20.952;2023-07-31T07:29:39;9.65;;;3.67;;
34317;SDS011;20582;52.196;20.952;2023-07-31T07:32:05;13.68;;;4.10;;
34317;SDS011;20582;52.196;20.952;2023-07-31T07:34:31;10.75;;;4.18;;
34317;SDS011;20582;52.196;20.952;2023-07-31T07:36:57;10.48;;;4.25;;
34317;SDS011;20582;52.196;20.952;2023-07-31T07:39:23;9.23;;;3.90;;
34317;SDS011;20582;52.196;20.952;2023-07-31T07:41:49;10.23;;;3.78;;
34317;SDS011;20582;52.196;20.952;2023-07-31T07:44:15;7.40;;;3.75;;
34317;SDS011;20582;52.196;20.952;2023-07-31T07:46:41;10.80;;;3.50;;
34317;SDS011;20582;52.196;20.952;2023-07-31T07:49:08;7.90;;;3.83;;
34317;SDS011;20582;52.196;20.952;2023-07-31T07:51:33;7.95;;;3.67;;
34317;SDS011;20582;52.196;20.952;2023-07-31T07:54:00;8.43;;;3.38;;
34317;SDS011;20582;52.196;20.952;2023-07-31T07:56:26;11.60;;;3.80;;
34317;SDS011;20582;52.196;20.952;2023-07-31T07:58:52;9.13;;;3.45;;
34317;SDS011;20582;52.196;20.952;2023-07-31T08:01:19;7.78;;;3.47;;
34317;SDS011;20582;52.196;20.952;2023-07-31T08:03:45;9.40;;;3.25;;
34317;SDS011;20582;52.196;20.952;2023-07-31T08:06:11;8.60;;;3.67;;
34317;SDS011;20582;52.196;20.952;2023-07-31T08:08:37;8.27;;;3.38;;
34317;SDS011;20582;52.196;20.952;2023-07-31T08:11:03;8.23;;;3.65;;
34317;SDS011;20582;52.196;20.952;2023-07-31T08:13:29;7.18;;;3.20;;
34317;SDS011;20582;52.196;20.952;2023-07-31T08:15:55;12.93;;;3.40;;
34317;SDS011;20582;52.196;20.952;2023-07-31T08:18:21;9.93;;;3.65;;
34317;SDS011;20582;52.196;20.952;2023-07-31T08:20:47;10.88;;;3.30;;
34317;SDS011;20582;52.196;20.952;2023-07-31T08:23:14;9.25;;;3.42;;
34317;SDS011;20582;52.196;20.952;2023-07-31T08:25:40;9.80;;;3.30;;
34317;SDS011;20582;52.196;20.952;2023-07-31T08:28:06;7.88;;;3.60;;
34317;SDS011;20582;52.196;20.952;2023-07-31T08:30:32;7.82;;;3.63;;
34317;SDS011;20582;52.196;20.952;2023-07-31T08:32:59;8.20;;;3.50;;
34317;SDS011;20582;52.196;20.952;2023-07-31T08:35:25;7.78;;;3.50;;
34317;SDS011;20582;52.196;20.952;2023-07-31T08:37:53;8.70;;;3.35;;
34317;SDS011;20582;52.196;20.952;2023-07-31T08:40:19;7.78;;;3.33;;
34317;SDS011;20582;52.196;20.952;2023-07-31T08:42:47;8.35;;;3.40;;
34317;SDS011;20582;52.196;20.952;2023-07-31T08:45:16;7.55;;;3.20;;
34317;SDS011;20582;52.196;20.952;2023-07-31T08:47:50;6.57;;;2.80;;
34317;SDS011;20582;52.196;20.952;2023-07-31T08:50:17;10.02;;;3.42;;
34317;SDS011;20582;52.196;20.952;2023-07-31T08:52:44;7.80;;;3.35;;
34317;SDS011;20582;52.196;20.952;2023-07-31T08:55:10;7.70;;;3.92;;
34317;SDS011;20582;52.196;20.952;2023-07-31T08:57:37;8.52;;;3.92;;
34317;SDS011;20582;52.196;20.952;2023-07-31T09:00:06;9.27;;;3.13;;
34317;SDS011;20582;52.196;20.952;2023-07-31T09:02:41;6.82;;;3.00;;
34317;SDS011;20582;52.196;20.952;2023-07-31T09:05:10;10.02;;;3.00;;
34317;SDS011;20582;52.196;20.952;2023-07-31T09:07:37;7.15;;;2.92;;
34317;SDS011;20582;52.196;20.952;2023-07-31T09:10:03;7.22;;;3.10;;
34317;SDS011;20582;52.196;20.952;2023-07-31T09:12:29;7.80;;;2.95;;
34317;SDS011;20582;52.196;20.952;2023-07-31T09:14:56;11.82;;;2.55;;
34317;SDS011;20582;52.196;20.952;2023-07-31T09:17:29;6.80;;;2.90;;
34317;SDS011;20582;52.196;20.952;2023-07-31T09:19:56;8.02;;;2.80;;
34317;SDS011;20582;52.196;20.952;2023-07-31T09:22:32;6.70;;;2.60;;
34317;SDS011;20582;52.196;20.952;2023-07-31T09:25:14;6.75;;;2.78;;
34317;SDS011;20582;52.196;20.952;2023-07-31T09:27:53;5.95;;;2.47;;
34317;SDS011;20582;52.196;20.952;2023-07-31T09:30:20;8.63;;;2.60;;
34317;SDS011;20582;52.196;20.952;2023-07-31T09:32:47;8.10;;;4.32;;
34317;SDS011;20582;52.196;20.952;2023-07-31T09:35:15;6.93;;;2.70;;
34317;SDS011;20582;52.196;20.952;2023-07-31T09:37:47;5.72;;;2.42;;
34317;SDS011;20582;52.196;20.952;2023-07-31T09:40:24;7.20;;;2.55;;
34317;SDS011;20582;52.196;20.952;2023-07-31T09:42:51;6.43;;;2.47;;
34317;SDS011;20582;52.196;20.952;2023-07-31T09:45:17;5.22;;;2.70;;
34317;SDS011;20582;52.196;20.952;2023-07-31T09:47:47;8.02;;;2.80;;
34317;SDS011;20582;52.196;20.952;2023-07-31T09:50:14;7.65;;;2.65;;
34317;SDS011;20582;52.196;20.952;2023-07-31T09:52:41;7.03;;;2.70;;
34317;SDS011;20582;52.196;20.952;2023-07-31T09:55:07;7.72;;;2.50;;
34317;SDS011;20582;52.196;20.952;2023-07-31T09:57:33;7.07;;;2.40;;
34317;SDS011;20582;52.196;20.952;2023-07-31T09:59:59;6.35;;;2.53;;
34317;SDS011;20582;52.196;20.952;2023-07-31T10:02:25;4.10;;;2.30;;
34317;SDS011;20582;52.196;20.952;2023-07-31T10:04:52;5.07;;;2.17;;
34317;SDS011;20582;52.196;20.952;2023-07-31T10:07:20;7.55;;;2.42;;
34317;SDS011;20582;52.196;20.952;2023-07-31T10:09:48;7.65;;;2.10;;
34317;SDS011;20582;52.196;20.952;2023-07-31T10:12:14;4.85;;;2.50;;
34317;SDS011;20582;52.196;20.952;2023-07-31T10:14:41;6.05;;;2.47;;
34317;SDS011;20582;52.196;20.952;2023-07-31T10:17:08;5.07;;;2.20;;
34317;SDS011;20582;52.196;20.952;2023-07-31T10:19:34;5.57;;;2.78;;
34317;SDS011;20582;52.196;20.952;2023-07-31T10:22:00;6.97;;;2.40;;
34317;SDS011;20582;52.196;20.952;2023-07-31T10:24:28;4.95;;;2.40;;
34317;SDS011;20582;52.196;20.952;2023-07-31T10:26:55;5.95;;;2.53;;
34317;SDS011;20582;52.196;20.952;2023-07-31T10:29:23;6.03;;;2.25;;
34317;SDS011;20582;52.196;20.952;2023-07-31T10:31:50;5.07;;;2.35;;
34317;SDS011;20582;52.196;20.952;2023-07-31T10:34:16;4.07;;;2.30;;
34317;SDS011;20582;52.196;20.952;2023-07-31T10:36:42;5.75;;;2.95;;
34317;SDS011;20582;52.196;20.952;2023-07-31T10:41:53;6.50;;;2.55;;
34317;SDS011;20582;52.196;20.952;2023-07-31T10:44:19;4.55;;;2.40;;
34317;SDS011;20582;52.196;20.952;2023-07-31T10:46:45;4.32;;;2.30;;
34317;SDS011;20582;52.196;20.952;2023-07-31T10:49:12;5.72;;;2.20;;
34317;SDS011;20582;52.196;20.952;2023-07-31T10:51:46;5.90;;;2.30;;
34317;SDS011;20582;52.196;20.952;2023-07-31T10:54:13;3.13;;;2.00;;
34317;SDS011;20582;52.196;20.952;2023-07-31T10:56:40;4.85;;;2.13;;
34317;SDS011;20582;52.196;20.952;2023-07-31T10:59:06;6.10;;;2.00;;
34317;SDS011;20582;52.196;20.952;2023-07-31T11:04:21;3.47;;;1.65;;
34317;SDS011;20582;52.196;20.952;2023-07-31T11:06:55;7.78;;;1.88;;
34317;SDS011;20582;52.196;20.952;2023-07-31T11:09:21;5.15;;;2.05;;
34317;SDS011;20582;52.196;20.952;2023-07-31T11:11:47;5.72;;;2.38;;
34317;SDS011;20582;52.196;20.952;2023-07-31T11:14:16;8.77;;;2.20;;
34317;SDS011;20582;52.196;20.952;2023-07-31T11:16:42;5.43;;;2.15;;
34317;SDS011;20582;52.196;20.952;2023-07-31T11:19:08;5.80;;;2.10;;
34317;SDS011;20582;52.196;20.952;2023-07-31T11:21:34;6.70;;;1.92;;
34317;SDS011;20582;52.196;20.952;2023-07-31T11:24:00;6.10;;;2.20;;
34317;SDS011;20582;52.196;20.952;2023-07-31T11:26:26;5.13;;;2.00;;
34317;SDS011;20582;52.196;20.952;2023-07-31T11:28:52;4.40;;;2.00;;
34317;SDS011;20582;52.196;20.952;2023-07-31T11:31:18;7.75;;;2.60;;
34317;SDS011;20582;52.196;20.952;2023-07-31T11:33:45;4.90;;;1.92;;
34317;SDS011;20582;52.196;20.952;2023-07-31T11:36:17;4.88;;;2.25;;
34317;SDS011;20582;52.196;20.952;2023-07-31T11:38:43;5.63;;;1.90;;
34317;SDS011;20582;52.196;20.952;2023-07-31T11:41:09;3.97;;;1.95;;
34317;SDS011;20582;52.196;20.952;2023-07-31T11:43:35;6.75;;;2.25;;
34317;SDS011;20582;52.196;20.952;2023-07-31T11:46:01;5.53;;;2.20;;
34317;SDS011;20582;52.196;20.952;2023-07-31T11:48:28;4.63;;;2.20;;
34317;SDS011;20582;52.196;20.952;2023-07-31T11:50:58;5.50;;;2.03;;
34317;SDS011;20582;52.196;20.952;2023-07-31T11:53:35;5.82;;;2.40;;
34317;SDS011;20582;52.196;20.952;2023-07-31T11:56:02;6.60;;;2.20;;
34317;SDS011;20582;52.196;20.952;2023-07-31T11:58:32;7.35;;;2.25;;
34317;SDS011;20582;52.196;20.952;2023-07-31T12:00:59;5.30;;;2.17;;
34317;SDS011;20582;52.196;20.952;2023-07-31T12:03:26;5.90;;;2.33;;
34317;SDS011;20582;52.196;20.952;2023-07-31T12:05:52;10.85;;;2.72;;
34317;SDS011;20582;52.196;20.952;2023-07-31T12:08:20;4.20;;;2.20;;
34317;SDS011;20582;52.196;20.952;2023-07-31T12:10:46;8.07;;;2.40;;
34317;SDS011;20582;52.196;20.952;2023-07-31T12:13:20;5.40;;;2.25;;
34317;SDS011;20582;52.196;20.952;2023-07-31T12:15:46;5.72;;;2.30;;
34317;SDS011;20582;52.196;20.952;2023-07-31T12:18:13;6.35;;;2.33;;
34317;SDS011;20582;52.196;20.952;2023-07-31T12:20:40;7.30;;;2.53;;
34317;SDS011;20582;52.196;20.952;2023-07-31T12:23:07;6.55;;;2.33;;
34317;SDS011;20582;52.196;20.952;2023-07-31T12:25:33;6.88;;;2.58;;
34317;SDS011;20582;52.196;20.952;2023-07-31T12:28:04;7.28;;;2.67;;
34317;SDS011;20582;52.196;20.952;2023-07-31T12:30:32;8.00;;;2.72;;
34317;SDS011;20582;52.196;20.952;2023-07-31T12:33:03;7.57;;;2.50;;
34317;SDS011;20582;52.196;20.952;2023-07-31T12:35:40;5.07;;;2.15;;
34317;SDS011;20582;52.196;20.952;2023-07-31T12:38:06;6.43;;;2.28;;
34317;SDS011;20582;52.196;20.952;2023-07-31T12:40:32;7.80;;;2.50;;
34317;SDS011;20582;52.196;20.952;2023-07-31T12:43:01;8.95;;;2.40;;
34317;SDS011;20582;52.196;20.952;2023-07-31T12:45:28;7.70;;;2.53;;
34317;SDS011;20582;52.196;20.952;2023-07-31T12:47:54;11.25;;;2.22;;
34317;SDS011;20582;52.196;20.952;2023-07-31T12:50:20;8.65;;;2.78;;
34317;SDS011;20582;52.196;20.952;2023-07-31T12:52:46;10.20;;;2.63;;
34317;SDS011;20582;52.196;20.952;2023-07-31T12:55:12;8.43;;;2.67;;
34317;SDS011;20582;52.196;20.952;2023-07-31T12:57:39;7.57;;;2.50;;
34317;SDS011;20582;52.196;20.952;2023-07-31T13:00:07;8.50;;;2.20;;
34317;SDS011;20582;52.196;20.952;2023-07-31T13:02:33;6.72;;;2.13;;
34317;SDS011;20582;52.196;20.952;2023-07-31T13:04:59;8.25;;;2.03;;
34317;SDS011;20582;52.196;20.952;2023-07-31T13:07:25;7.20;;;2.15;;
34317;SDS011;20582;52.196;20.952;2023-07-31T13:09:51;6.85;;;2.45;;
34317;SDS011;20582;52.196;20.952;2023-07-31T13:12:17;6.13;;;2.22;;
34317;SDS011;20582;52.196;20.952;2023-07-31T13:14:43;7.32;;;2.33;;
34317;SDS011;20582;52.196;20.952;2023-07-31T13:17:09;8.48;;;2.42;;
34317;SDS011;20582;52.196;20.952;2023-07-31T13:19:35;6.60;;;2.10;;
34317;SDS011;20582;52.196;20.952;2023-07-31T13:22:01;9.15;;;2.10;;
34317;SDS011;20582;52.196;20.952;2023-07-31T13:24:27;6.38;;;2.13;;
34317;SDS011;20582;52.196;20.952;2023-07-31T13:26:55;5.30;;;2.20;;
34317;SDS011;20582;52.196;20.952;2023-07-31T13:29:21;7.03;;;2.20;;
34317;SDS011;20582;52.196;20.952;2023-07-31T13:31:47;6.97;;;2.28;;
34317;SDS011;20582;52.196;20.952;2023-07-31T13:34:13;5.55;;;2.10;;
34317;SDS011;20582;52.196;20.952;2023-07-31T13:36:39;7.18;;;2.60;;
34317;SDS011;20582;52.196;20.952;2023-07-31T13:39:06;6.90;;;2.17;;
34317;SDS011;20582;52.196;20.952;2023-07-31T13:41:32;3.95;;;1.83;;
34317;SDS011;20582;52.196;20.952;2023-07-31T13:43:58;8.45;;;2.38;;
34317;SDS011;20582;52.196;20.952;2023-07-31T13:46:24;7.47;;;2.30;;
34317;SDS011;20582;52.196;20.952;2023-07-31T13:48:51;6.40;;;2.40;;
34317;SDS011;20582;52.196;20.952;2023-07-31T13:51:20;8.20;;;2.85;;
34317;SDS011;20582;52.196;20.952;2023-07-31T13:53:46;7.78;;;2.53;;
34317;SDS011;20582;52.196;20.952;2023-07-31T13:56:12;9.18;;;2.35;;
34317;SDS011;20582;52.196;20.952;2023-07-31T13:58:38;5.63;;;2.25;;
34317;SDS011;20582;52.196;20.952;2023-07-31T14:01:04;6.05;;;2.67;;
34317;SDS011;20582;52.196;20.952;2023-07-31T14:03:30;9.48;;;2.80;;
34317;SDS011;20582;52.196;20.952;2023-07-31T14:05:56;8.77;;;2.10;;
34317;SDS011;20582;52.196;20.952;2023-07-31T14:08:22;8.48;;;2.42;;
34317;SDS011;20582;52.196;20.952;2023-07-31T14:10:48;9.73;;;2.30;;
34317;SDS011;20582;52.196;20.952;2023-07-31T14:13:14;6.40;;;2.30;;
34317;SDS011;20582;52.196;20.952;2023-07-31T14:15:43;6.65;;;2.20;;
34317;SDS011;20582;52.196;20.952;2023-07-31T14:18:09;6.32;;;2.03;;
34317;SDS011;20582;52.196;20.952;2023-07-31T14:20:35;7.75;;;2.65;;
34317;SDS011;20582;52.196;20.952;2023-07-31T14:23:02;8.70;;;2.42;;
34317;SDS011;20582;52.196;20.952;2023-07-31T14:25:28;8.25;;;2.30;;
34317;SDS011;20582;52.196;20.952;2023-07-31T14:27:54;5.32;;;2.20;;
34317;SDS011;20582;52.196;20.952;2023-07-31T14:30:20;6.53;;;2.47;;
34317;SDS011;20582;52.196;20.952;2023-07-31T14:32:46;8.23;;;2.55;;
34317;SDS011;20582;52.196;20.952;2023-07-31T14:35:12;8.15;;;2.17;;